createdAt,value
2018-07-05T00:02:34.242Z,100705.05
2018-07-05T00:05:14.057Z,100701.30
2018-07-05T00:07:54.002Z,100702.58
2018-07-05T00:10:33.788Z,100696.89
2018-07-05T00:13:14.029Z,100697.54
2018-07-05T00:15:53.725Z,100701.19
2018-07-05T00:18:33.434Z,100698.58
2018-07-05T00:21:13.252Z,100703.09
2018-07-05T00:23:52.884Z,100700.41
2018-07-05T00:26:32.541Z,100701.63
2018-07-05T00:29:12.253Z,100701.78
2018-07-05T00:31:52.077Z,100695.58
2018-07-05T00:34:31.806Z,100691.89
2018-07-05T00:37:11.619Z,100702.45
2018-07-05T00:39:51.427Z,100699.34
2018-07-05T00:42:31.213Z,100699.63
2018-07-05T00:45:10.854Z,100695.95
2018-07-05T00:47:50.687Z,100696.06
2018-07-05T00:50:30.348Z,100698.80
2018-07-05T00:53:10.228Z,100690.16
2018-07-05T00:55:49.940Z,100692.89
2018-07-05T00:58:29.721Z,100694.89
2018-07-05T01:01:09.575Z,100696.11
2018-07-05T01:03:49.325Z,100689.08
2018-07-05T01:06:29.280Z,100683.64
2018-07-05T01:09:09.060Z,100687.28
2018-07-05T01:11:48.821Z,100685.55
2018-07-05T01:14:28.604Z,100688.28
2018-07-05T01:17:08.418Z,100689.55
2018-07-05T01:19:48.200Z,100689.29
2018-07-05T01:22:27.900Z,100697.13
2018-07-05T01:25:07.675Z,100702.33
2018-07-05T01:27:47.496Z,100703.23
2018-07-05T01:30:27.264Z,100697.53
2018-07-05T01:33:06.970Z,100697.69
2018-07-05T01:35:46.778Z,100697.33
2018-07-05T01:38:26.421Z,100694.50
2018-07-05T01:41:06.221Z,100691.02
2018-07-05T01:43:45.852Z,100687.58
2018-07-05T01:46:25.652Z,100687.69
2018-07-05T01:49:05.365Z,100682.89
2018-07-05T01:51:44.941Z,100687.09
2018-07-05T01:54:24.652Z,100687.38
2018-07-05T01:57:04.395Z,100689.34
2018-07-05T01:59:44.166Z,100694.44
2018-07-05T02:02:23.987Z,100679.34
2018-07-05T02:05:03.652Z,100682.33
2018-07-05T02:07:43.381Z,100674.16
2018-07-05T02:10:23.046Z,100674.91
2018-07-05T02:13:02.898Z,100678.89
2018-07-05T02:15:42.612Z,100682.11
2018-07-05T02:18:22.458Z,100685.73
2018-07-05T02:21:02.235Z,100684.87
2018-07-05T02:23:42.035Z,100684.02
2018-07-05T02:26:21.874Z,100680.53
2018-07-05T02:29:01.676Z,100674.48
2018-07-05T02:31:41.453Z,100684.52
2018-07-05T02:34:21.385Z,100685.13
2018-07-05T02:37:01.032Z,100683.02
2018-07-05T02:39:48.235Z,100683.52
2018-07-05T02:42:27.867Z,100677.20
2018-07-05T02:45:07.741Z,100687.34
2018-07-05T02:47:47.449Z,100678.09
2018-07-05T02:50:27.099Z,100676.95
2018-07-05T02:53:06.864Z,100672.76
2018-07-05T02:55:46.581Z,100676.84
2018-07-05T02:58:26.395Z,100677.45
2018-07-05T03:01:06.149Z,100677.81
2018-07-05T03:03:45.964Z,100680.42
2018-07-05T03:06:25.772Z,100675.34
2018-07-05T03:09:05.660Z,100678.31
2018-07-05T03:11:45.271Z,100681.04
2018-07-05T03:14:24.902Z,100690.94
2018-07-05T03:17:04.690Z,100683.16
2018-07-05T03:19:44.525Z,100692.19
2018-07-05T03:22:24.284Z,100686.98
2018-07-05T03:25:03.997Z,100689.07
2018-07-05T03:27:43.774Z,100689.57
2018-07-05T03:30:23.592Z,100683.73
2018-07-05T03:33:03.356Z,100690.65
2018-07-05T03:35:43.204Z,100681.86
2018-07-05T03:38:22.819Z,100689.14
2018-07-05T03:41:02.604Z,100681.57
2018-07-05T03:43:42.310Z,100682.89
2018-07-05T03:46:22.087Z,100687.48
2018-07-05T03:49:01.877Z,100685.21
2018-07-05T03:51:41.592Z,100688.79
2018-07-05T03:54:21.323Z,100687.53
2018-07-05T03:57:01.013Z,100681.17
2018-07-05T03:59:40.928Z,100677.39
2018-07-05T04:02:20.732Z,100677.48
2018-07-05T04:05:00.555Z,100667.57
2018-07-05T04:09:09.492Z,100679.79
2018-07-05T04:11:49.131Z,100679.52
2018-07-05T04:14:28.833Z,100679.96
2018-07-05T04:17:08.553Z,100676.97
2018-07-05T04:19:50.651Z,100672.61
2018-07-05T04:22:30.397Z,100677.16
2018-07-05T04:25:10.655Z,100673.16
2018-07-05T04:27:50.504Z,100674.25
2018-07-05T04:30:30.248Z,100678.44
2018-07-05T04:33:09.968Z,100676.54
2018-07-05T04:35:49.740Z,100675.27
2018-07-05T04:38:29.424Z,100680.16
2018-07-05T04:41:09.264Z,100678.38
2018-07-05T04:43:49.050Z,100680.33
2018-07-05T04:46:28.665Z,100677.41
2018-07-05T04:49:08.445Z,100677.85
2018-07-05T04:51:48.143Z,100688.50
2018-07-05T04:54:27.935Z,100688.23
2018-07-05T04:57:07.577Z,100690.39
2018-07-05T04:59:47.462Z,100690.50
2018-07-05T05:02:27.141Z,100682.75
2018-07-05T05:05:07.758Z,100684.42
2018-07-05T05:07:46.604Z,100689.45
2018-07-05T05:10:26.416Z,100684.81
2018-07-05T05:13:06.220Z,100683.95
2018-07-05T05:15:46.023Z,100679.58
2018-07-05T05:18:25.803Z,100676.99
2018-07-05T05:21:05.541Z,100682.53
2018-07-05T05:23:45.262Z,100680.22
2018-07-05T05:26:24.919Z,100677.63
2018-07-05T05:29:04.627Z,100681.24
2018-07-05T05:31:44.396Z,100680.63
2018-07-05T05:34:24.247Z,100674.90
2018-07-05T05:37:03.838Z,100674.55
2018-07-05T05:39:43.644Z,100670.58
2018-07-05T05:42:23.410Z,100667.00
2018-07-05T05:45:03.230Z,100673.67
2018-07-05T05:47:42.976Z,100679.32
2018-07-05T05:50:22.740Z,100675.77
2018-07-05T05:53:02.464Z,100673.53
2018-07-05T05:55:42.376Z,100677.80
2018-07-05T05:58:22.092Z,100677.59
2018-07-05T06:01:01.952Z,100674.70
2018-07-05T06:03:41.716Z,100676.92
2018-07-05T06:06:21.472Z,100680.17
2018-07-05T06:09:01.146Z,100675.05
2018-07-05T06:11:40.782Z,100676.88
2018-07-05T06:14:20.536Z,100678.97
2018-07-05T06:17:00.296Z,100676.95
2018-07-05T06:19:40.124Z,100680.19
2018-07-05T06:22:19.829Z,100679.84
2018-07-05T06:24:59.335Z,100683.41
2018-07-05T06:27:38.950Z,100681.06
2018-07-05T06:30:18.718Z,100674.46
2018-07-05T06:32:58.544Z,100676.72
2018-07-05T06:35:38.328Z,100667.69
2018-07-05T06:38:17.967Z,100675.41
2018-07-05T06:40:57.841Z,100677.62
2018-07-05T06:43:37.504Z,100674.16
2018-07-05T06:46:17.240Z,100671.88
2018-07-05T06:48:57.070Z,100671.86
2018-07-05T06:51:36.925Z,100672.30
2018-07-05T06:54:16.588Z,100679.16
2018-07-05T06:56:56.341Z,100681.18
2018-07-05T06:59:36.225Z,100680.75
2018-07-05T07:02:16.106Z,100671.97
2018-07-05T07:04:55.915Z,100682.45
2018-07-05T07:07:35.748Z,100681.40
2018-07-05T07:10:15.458Z,100688.33
2018-07-05T07:12:55.369Z,100691.74
2018-07-05T07:15:35.686Z,100683.34
2018-07-05T07:18:15.447Z,100682.30
2018-07-05T07:20:55.205Z,100686.48
2018-07-05T07:23:35.057Z,100681.67
2018-07-05T07:26:14.680Z,100682.19
2018-07-05T07:28:54.468Z,100682.34
2018-07-05T07:31:34.102Z,100686.73
2018-07-05T07:34:13.685Z,100683.45
2018-07-05T07:36:53.412Z,100684.37
2018-07-05T07:39:33.091Z,100683.93
2018-07-05T07:42:00.363Z,100683.30
2018-07-05T07:44:27.697Z,100685.41
2018-07-05T07:46:54.935Z,100680.05
2018-07-05T07:49:22.184Z,100680.27
2018-07-05T07:51:49.457Z,100681.95
2018-07-05T07:54:16.719Z,100680.35
2018-07-05T07:56:43.997Z,100677.84
2018-07-05T07:59:11.260Z,100675.50
2018-07-05T08:01:38.521Z,100676.77
2018-07-05T08:04:05.786Z,100671.97
2018-07-05T08:06:33.046Z,100669.41
2018-07-05T08:09:00.306Z,100679.55
2018-07-05T08:11:27.566Z,100672.52
2018-07-05T08:13:54.817Z,100672.21
2018-07-05T08:16:22.099Z,100665.25
2018-07-05T08:18:49.350Z,100664.80
2018-07-05T08:21:16.609Z,100666.42
2018-07-05T08:23:43.872Z,100658.68
2018-07-05T08:26:11.209Z,100662.55
2018-07-05T08:28:38.451Z,100663.62
2018-07-05T08:31:05.704Z,100654.20
2018-07-05T08:33:33.060Z,100655.99
2018-07-05T08:36:00.312Z,100657.24
2018-07-05T08:38:27.564Z,100661.28
2018-07-05T08:40:54.817Z,100660.55
2018-07-05T08:43:22.080Z,100662.25
2018-07-05T08:45:49.330Z,100656.55
2018-07-05T08:48:16.605Z,100656.18
2018-07-05T08:50:43.867Z,100657.44
2018-07-05T08:53:11.117Z,100656.19
2018-07-05T08:55:38.372Z,100646.64
2018-07-05T08:58:05.621Z,100650.99
2018-07-05T09:00:32.952Z,100641.89
2018-07-05T09:03:00.206Z,100641.84
2018-07-05T09:05:27.448Z,100634.11
2018-07-05T09:07:54.735Z,100638.40
2018-07-05T09:10:21.986Z,100638.98
2018-07-05T09:12:49.234Z,100631.39
2018-07-05T09:15:16.486Z,100636.28
2018-07-05T09:17:43.730Z,100634.60
2018-07-05T09:20:10.993Z,100637.44
2018-07-05T09:22:38.240Z,100636.95
2018-07-05T09:25:05.576Z,100626.50
2018-07-05T09:27:32.873Z,100626.61
2018-07-05T09:30:00.137Z,100629.65
2018-07-05T09:32:27.432Z,100629.36
2018-07-05T09:34:54.712Z,100621.08
2018-07-05T09:37:22.005Z,100620.30
2018-07-05T09:39:49.260Z,100627.47
2018-07-05T09:42:16.522Z,100623.67
2018-07-05T09:44:43.762Z,100623.52
2018-07-05T09:47:11.033Z,100620.32
2018-07-05T09:49:38.308Z,100622.12
2018-07-05T09:52:05.562Z,100617.94
2018-07-05T09:54:32.813Z,100622.58
2018-07-05T09:57:00.071Z,100622.58
2018-07-05T09:59:27.340Z,100620.45
2018-07-05T10:01:54.605Z,100622.59
2018-07-05T10:04:22.363Z,100617.47
2018-07-05T10:06:49.632Z,100615.12
2018-07-05T10:09:16.911Z,100618.22
2018-07-05T10:11:44.167Z,100616.50
2018-07-05T10:14:11.421Z,100616.84
2018-07-05T10:16:38.671Z,100614.41
2018-07-05T10:19:05.929Z,100608.36
2018-07-05T10:21:33.184Z,100597.95
2018-07-05T10:24:00.466Z,100600.45
2018-07-05T10:26:27.740Z,100596.33
2018-07-05T10:29:07.253Z,100588.70
2018-07-05T10:31:47.045Z,100585.30
2018-07-05T10:34:14.362Z,100577.53
2018-07-05T10:36:41.613Z,100575.99
2018-07-05T10:39:08.864Z,100574.00
2018-07-05T10:41:48.684Z,100576.86
2018-07-05T10:44:28.608Z,100570.65
2018-07-05T10:47:08.510Z,100574.73
2018-07-05T10:49:48.146Z,100572.59
2018-07-05T10:52:27.758Z,100566.53
2018-07-05T10:55:07.511Z,100561.42
2018-07-05T10:57:47.117Z,100556.25
2018-07-05T11:00:26.956Z,100555.16
2018-07-05T11:03:06.705Z,100556.62
2018-07-05T11:05:46.524Z,100554.34
2018-07-05T11:08:26.276Z,100552.60
2018-07-05T11:11:05.980Z,100557.05
2018-07-05T11:13:45.761Z,100550.72
2018-07-05T11:16:25.604Z,100544.81
2018-07-05T11:19:05.455Z,100546.98
2018-07-05T11:21:45.165Z,100549.39
2018-07-05T11:24:24.977Z,100542.56
2018-07-05T11:27:04.864Z,100538.48
2018-07-05T11:29:45.023Z,100539.11
2018-07-05T11:32:24.657Z,100525.28
2018-07-05T11:35:04.440Z,100527.50
2018-07-05T11:37:44.179Z,100521.28
2018-07-05T11:40:23.848Z,100533.17
2018-07-05T11:43:03.877Z,100527.59
2018-07-05T11:45:43.564Z,100530.02
2018-07-05T11:48:23.374Z,100522.47
2018-07-05T11:51:03.160Z,100519.58
2018-07-05T11:53:42.776Z,100517.81
2018-07-05T11:56:22.494Z,100522.80
2018-07-05T11:59:02.278Z,100525.34
2018-07-05T12:01:42.040Z,100521.97
2018-07-05T12:04:21.712Z,100514.25
2018-07-05T12:07:01.768Z,100515.95
2018-07-05T12:09:41.646Z,100511.98
2018-07-05T12:12:21.318Z,100508.89
2018-07-05T12:15:00.866Z,100514.91
2018-07-05T12:17:40.779Z,100512.67
2018-07-05T12:20:20.505Z,100507.00
2018-07-05T12:23:00.457Z,100507.22
2018-07-05T12:25:40.020Z,100494.72
2018-07-05T12:28:19.840Z,100493.36
2018-07-05T12:30:59.591Z,100486.80
2018-07-05T12:33:39.337Z,100484.84
2018-07-05T12:36:18.972Z,100485.47
2018-07-05T12:38:58.727Z,100489.09
2018-07-05T12:41:38.525Z,100492.31
2018-07-05T12:44:18.350Z,100489.73
2018-07-05T12:46:58.411Z,100489.18
2018-07-05T12:49:38.214Z,100492.45
2018-07-05T12:52:17.960Z,100489.59
2018-07-05T12:54:57.737Z,100488.83
2018-07-05T12:57:37.607Z,100488.43
2018-07-05T13:00:17.398Z,100481.81
2018-07-05T13:02:57.611Z,100479.36
2018-07-05T13:05:37.351Z,100481.23
2018-07-05T13:08:17.015Z,100476.41
2018-07-05T13:10:57.151Z,100478.64
2018-07-05T13:13:36.752Z,100475.91
2018-07-05T13:16:16.567Z,100469.97
2018-07-05T13:18:56.710Z,100482.80
2018-07-05T13:21:36.635Z,100478.59
2018-07-05T13:24:16.471Z,100476.80
2018-07-05T13:26:56.035Z,100474.14
2018-07-05T13:29:35.823Z,100477.66
2018-07-05T13:32:15.607Z,100468.89
2018-07-05T13:34:55.206Z,100463.00
2018-07-05T13:37:35.302Z,100478.16
2018-07-05T13:40:15.049Z,100477.95
2018-07-05T13:42:54.826Z,100475.64
2018-07-05T13:45:34.621Z,100474.02
2018-07-05T13:48:14.316Z,100478.30
2018-07-05T13:50:54.063Z,100477.11
2018-07-05T13:53:33.874Z,100479.14
2018-07-05T13:56:13.608Z,100483.48
2018-07-05T13:58:53.339Z,100475.89
2018-07-05T14:01:33.150Z,100478.98
2018-07-05T14:04:13.025Z,100477.32
2018-07-05T14:06:52.936Z,100488.59
2018-07-05T14:09:32.761Z,100474.51
2018-07-05T14:12:12.702Z,100478.39
2018-07-05T14:14:52.688Z,100476.55
2018-07-05T14:17:32.230Z,100473.35
2018-07-05T14:20:12.152Z,100471.73
2018-07-05T14:22:52.056Z,100473.05
2018-07-05T14:25:31.874Z,100468.36
2018-07-05T14:28:11.692Z,100469.45
2018-07-05T14:30:51.516Z,100462.42
2018-07-05T14:33:31.141Z,100457.25
2018-07-05T14:36:10.894Z,100460.81
2018-07-05T14:38:50.844Z,100457.73
2018-07-05T14:41:30.610Z,100456.98
2018-07-05T14:44:10.383Z,100462.69
2018-07-05T14:46:50.077Z,100470.27
2018-07-05T14:49:29.920Z,100465.91
2018-07-05T14:52:09.679Z,100461.20
2018-07-05T14:54:49.446Z,100459.33
2018-07-05T14:57:29.237Z,100465.75
2018-07-05T15:00:09.118Z,100462.98
2018-07-05T15:02:48.911Z,100454.59
2018-07-05T15:05:28.484Z,100451.89
2018-07-05T15:08:08.128Z,100449.95
2018-07-05T15:10:47.845Z,100452.72
2018-07-05T15:13:27.626Z,100449.50
2018-07-05T15:16:07.350Z,100451.34
2018-07-05T15:18:47.195Z,100447.66
2018-07-05T15:21:26.834Z,100451.35
2018-07-05T15:24:06.661Z,100450.81
2018-07-05T15:26:46.397Z,100440.89
2018-07-05T15:29:26.017Z,100444.80
2018-07-05T15:32:06.031Z,100443.56
2018-07-05T15:34:45.782Z,100450.73
2018-07-05T15:37:25.596Z,100453.45
2018-07-05T15:40:05.325Z,100448.56
2018-07-05T15:42:45.239Z,100441.11
2018-07-05T15:45:24.980Z,100452.89
2018-07-05T15:48:04.700Z,100449.73
2018-07-05T15:50:44.427Z,100449.02
2018-07-05T15:53:24.113Z,100446.09
2018-07-05T15:56:03.916Z,100448.02
2018-07-05T15:58:43.528Z,100440.86
2018-07-05T16:01:23.392Z,100450.45
2018-07-05T16:04:02.976Z,100444.14
2018-07-05T16:06:42.627Z,100443.41
2018-07-05T16:09:22.556Z,100442.61
2018-07-05T16:12:02.393Z,100443.27
2018-07-05T16:14:42.199Z,100442.66
2018-07-05T16:17:21.940Z,100437.13
2018-07-05T16:20:01.835Z,100441.97
2018-07-05T16:22:41.649Z,100431.13
2018-07-05T16:25:21.495Z,100427.27
2018-07-05T16:28:01.228Z,100426.89
2018-07-05T16:30:40.928Z,100434.70
2018-07-05T16:33:20.671Z,100443.88
2018-07-05T16:36:00.500Z,100441.35
2018-07-05T16:38:40.311Z,100435.68
2018-07-05T16:41:20.071Z,100441.78
2018-07-05T16:43:59.910Z,100436.94
2018-07-05T16:46:39.772Z,100446.54
2018-07-05T16:49:19.576Z,100447.06
2018-07-05T16:51:59.351Z,100447.20
2018-07-05T16:54:39.184Z,100455.16
2018-07-05T16:57:18.975Z,100445.58
2018-07-05T16:59:58.852Z,100452.69
2018-07-05T17:02:38.627Z,100454.47
2018-07-05T17:05:18.316Z,100457.35
2018-07-05T17:07:58.014Z,100447.37
2018-07-05T17:10:37.911Z,100460.15
2018-07-05T17:13:17.745Z,100456.54
2018-07-05T17:15:57.549Z,100454.83
2018-07-05T17:18:37.196Z,100466.77
2018-07-05T17:21:17.528Z,100457.44
2018-07-05T17:23:57.305Z,100467.09
2018-07-05T17:26:36.962Z,100464.70
2018-07-05T17:29:16.668Z,100465.75
2018-07-05T17:31:56.238Z,100474.75
2018-07-05T17:34:36.055Z,100471.46
2018-07-05T17:37:15.825Z,100476.16
2018-07-05T17:39:55.471Z,100476.12
2018-07-05T17:42:35.257Z,100472.39
2018-07-05T17:45:15.033Z,100472.23
2018-07-05T17:47:54.743Z,100479.48
2018-07-05T17:50:34.543Z,100478.69
2018-07-05T17:53:14.235Z,100474.59
2018-07-05T17:55:54.245Z,100488.02
2018-07-05T17:58:34.062Z,100481.81
2018-07-05T18:01:14.521Z,100484.47
2018-07-05T18:03:54.284Z,100488.27
2018-07-05T18:06:37.270Z,100492.13
2018-07-05T18:09:17.087Z,100495.38
2018-07-05T18:11:56.690Z,100502.66
2018-07-05T18:14:36.329Z,100505.41
2018-07-05T18:17:16.055Z,100514.06
2018-07-05T18:19:55.743Z,100516.81
2018-07-05T18:22:35.431Z,100515.27
2018-07-05T18:25:15.110Z,100521.82
2018-07-05T18:27:55.402Z,100526.83
2018-07-05T18:30:35.224Z,100532.73
2018-07-05T18:33:15.032Z,100535.83
2018-07-05T18:35:54.703Z,100533.62
2018-07-05T18:38:34.379Z,100546.89
2018-07-05T18:41:14.261Z,100543.09
2018-07-05T18:43:54.059Z,100551.73
2018-07-05T18:46:33.708Z,100549.33
2018-07-05T18:49:13.490Z,100551.58
2018-07-05T18:51:53.191Z,100554.02
2018-07-05T18:54:32.815Z,100554.90
2018-07-05T18:57:12.504Z,100556.28
2018-07-05T18:59:52.335Z,100565.22
2018-07-05T19:02:32.091Z,100562.14
2018-07-05T19:05:11.736Z,100562.30
2018-07-05T19:07:51.607Z,100573.31
2018-07-05T19:10:31.229Z,100577.27
2018-07-05T19:13:10.965Z,100581.75
2018-07-05T19:15:50.601Z,100586.92
2018-07-05T19:18:30.479Z,100587.45
2018-07-05T19:21:10.360Z,100592.77
2018-07-05T19:23:49.871Z,100598.98
2018-07-05T19:26:29.786Z,100599.98
2018-07-05T19:29:09.559Z,100608.25
2018-07-05T19:31:49.394Z,100609.28
2018-07-05T19:34:29.283Z,100614.78
2018-07-05T19:37:09.171Z,100617.53
2018-07-05T19:39:49.036Z,100613.41
2018-07-05T19:42:28.848Z,100623.84
2018-07-05T19:45:08.575Z,100626.82
2018-07-05T19:47:48.277Z,100622.98
2018-07-05T19:50:28.067Z,100623.16
2018-07-05T19:53:07.887Z,100629.17
2018-07-05T19:55:47.689Z,100634.64
2018-07-05T19:58:27.535Z,100632.36
2018-07-05T20:01:07.578Z,100628.96
2018-07-05T20:03:47.337Z,100635.30
2018-07-05T20:06:27.121Z,100637.17
2018-07-05T20:09:07.724Z,100652.94
2018-07-05T20:11:52.851Z,100654.81
2018-07-05T20:14:32.626Z,100654.78
2018-07-05T20:17:12.409Z,100657.27
2018-07-05T20:19:52.181Z,100656.06
2018-07-05T20:22:31.831Z,100657.44
2018-07-05T20:25:11.651Z,100665.28
2018-07-05T20:27:51.373Z,100665.26
2018-07-05T20:30:31.194Z,100665.87
2018-07-05T20:33:10.748Z,100665.81
2018-07-05T20:35:50.590Z,100671.63
2018-07-05T20:38:30.205Z,100667.77
2018-07-05T20:41:10.003Z,100672.17
2018-07-05T20:43:49.671Z,100682.05
2018-07-05T20:46:29.319Z,100684.45
2018-07-05T20:49:09.008Z,100685.41
2018-07-05T20:51:48.796Z,100685.76
2018-07-05T20:54:28.704Z,100694.44
2018-07-05T20:57:08.349Z,100689.48
2018-07-05T20:59:47.987Z,100691.85
2018-07-05T21:02:27.637Z,100703.64
2018-07-05T21:05:07.223Z,100707.37
2018-07-05T21:07:47.035Z,100718.20
2018-07-05T21:10:26.840Z,100717.14
2018-07-05T21:13:06.679Z,100732.91
2018-07-05T21:15:46.341Z,100735.09
2018-07-05T21:18:25.983Z,100735.13
2018-07-05T21:21:05.762Z,100738.68
2018-07-05T21:23:45.577Z,100742.52
2018-07-05T21:26:25.931Z,100739.39
2018-07-05T21:29:05.645Z,100743.27
2018-07-05T21:31:45.440Z,100753.50
2018-07-05T21:34:25.298Z,100756.97
2018-07-05T21:37:05.038Z,100764.86
2018-07-05T21:39:44.745Z,100765.50
2018-07-05T21:42:24.518Z,100772.11
2018-07-05T21:45:04.191Z,100781.19
2018-07-05T21:47:44.108Z,100778.73
2018-07-05T21:50:23.800Z,100783.59
2018-07-05T21:53:03.536Z,100781.53
2018-07-05T21:55:43.932Z,100791.49
2018-07-05T21:58:23.802Z,100792.92
2018-07-05T22:01:03.349Z,100789.11
2018-07-05T22:03:43.064Z,100794.42
2018-07-05T22:06:22.841Z,100800.08
2018-07-05T22:09:02.676Z,100800.23
2018-07-05T22:11:42.400Z,100797.62
2018-07-05T22:14:22.166Z,100798.35
2018-07-05T22:17:07.328Z,100796.84
2018-07-05T22:19:52.467Z,100805.27
2018-07-05T22:22:37.642Z,100806.69
2018-07-05T22:25:22.632Z,100810.87
2018-07-05T22:28:07.634Z,100810.72
2018-07-05T22:30:52.601Z,100814.91
2018-07-05T22:33:32.265Z,100813.81
2018-07-05T22:36:12.025Z,100816.63
2018-07-05T22:38:51.648Z,100812.52
2018-07-05T22:41:31.448Z,100810.91
2018-07-05T22:44:11.119Z,100812.05
2018-07-05T22:46:50.801Z,100817.94
2018-07-05T22:49:30.611Z,100821.68
2018-07-05T22:52:10.354Z,100831.16
2018-07-05T22:54:50.217Z,100828.96
2018-07-05T22:57:29.989Z,100831.70
2018-07-05T23:00:09.788Z,100835.70
2018-07-05T23:02:49.467Z,100835.02
2018-07-05T23:05:29.255Z,100841.73
2018-07-05T23:08:09.073Z,100838.67
2018-07-05T23:10:48.907Z,100839.95
2018-07-05T23:13:28.701Z,100840.55
2018-07-05T23:16:08.403Z,100845.56
2018-07-05T23:18:48.097Z,100837.63
2018-07-05T23:21:27.819Z,100846.32
2018-07-05T23:24:07.603Z,100850.30
2018-07-05T23:26:47.310Z,100852.68
2018-07-05T23:29:27.006Z,100868.17
2018-07-05T23:32:06.937Z,100868.58
2018-07-05T23:34:46.708Z,100868.17
2018-07-05T23:37:26.532Z,100874.61
2018-07-05T23:40:06.307Z,100878.52
2018-07-05T23:42:46.109Z,100878.20
2018-07-05T23:45:25.945Z,100877.34
2018-07-05T23:48:05.736Z,100878.86
2018-07-05T23:50:45.472Z,100886.34
2018-07-05T23:53:25.279Z,100888.11
2018-07-05T23:56:05.082Z,100890.73
2018-07-05T23:58:44.724Z,100886.20
